PWSweather.com
Personal Weather Stations
Station Observations
RIORANCHO
Corrales Heights, Rio Rancho, NM 87124

Corrales HeightsRio Rancho, NM 87124

Lat: 35.241928, Lon: -106.647095

Elevation: 5297

Station Type: Davis Vantage Pro 2 Plus

http://www.weatherriorancho.com

High Low Average
Temperature 70.1°F21.2°F 36.7°F2.6°F 51.1°F10.6°F
Dew Point 35.4°F1.9°F 26.8°F-2.9°F 30.5°F-0.8°F
Winds 4.6 mph SE7.4 mph SE Calm Calm 0.2 mph 0.3 mph
Wind Gusts 6.9 mph11.1 mph -- 0.7 mph1.1 mph
Humidity 68% 27% 48%
Pressure 30.35 in1027.80 in 30.18 in1022.00 in -
Precipitation 0.00 in0.00 in - -
Hour Temp Dew Point Humidity Winds Wind Gusts Pressure Precip Precip Rate Daily Precip Total
12:00 AM 42.0°F5.6°C 28.7°F-1.8°C 59% Calm Calm -- 30.32 in1026.8 mb - 0.00 in0.0 mm 0.00 in0.0 mm
12:10 AM 41.7°F5.4°C 28.8°F-1.8°C 60% Calm Calm -- 30.32 in1026.8 mb - 0.00 in0.0 mm 0.00 in0.0 mm
12:20 AM 41.3°F5.2°C 28.4°F-2.0°C 60% Calm Calm -- 30.32 in1026.8 mb - 0.00 in0.0 mm 0.00 in0.0 mm
12:30 AM 41.0°F5.0°C 28.6°F-1.9°C 61% Calm Calm -- 30.32 in1026.8 mb - 0.00 in0.0 mm 0.00 in0.0 mm
12:40 AM 40.8°F4.9°C 28.0°F-2.2°C 60% Calm Calm -- 30.32 in1026.8 mb - 0.00 in0.0 mm 0.00 in0.0 mm
12:50 AM 40.5°F4.7°C 28.5°F-1.9°C 62% Calm Calm -- 30.32 in1026.8 mb - 0.00 in0.0 mm 0.00 in0.0 mm
01:00 AM 40.3°F4.6°C 28.3°F-2.1°C 62% Calm Calm -- 30.32 in1026.8 mb - 0.00 in0.0 mm 0.00 in0.0 mm
01:10 AM 40.1°F4.5°C 28.1°F-2.2°C 62% Calm Calm -- 30.32 in1026.8 mb - 0.00 in0.0 mm 0.00 in0.0 mm
01:20 AM 40.0°F4.4°C 28.0°F-2.2°C 62% Calm Calm -- 30.31 in1026.4 mb - 0.00 in0.0 mm 0.00 in0.0 mm
01:30 AM 39.8°F4.3°C 28.2°F-2.1°C 63% Calm Calm -- 30.31 in1026.4 mb - 0.00 in0.0 mm 0.00 in0.0 mm
01:40 AM 39.6°F4.2°C 28.0°F-2.2°C 63% Calm Calm -- 30.31 in1026.4 mb - 0.00 in0.0 mm 0.00 in0.0 mm
01:50 AM 39.4°F4.1°C 27.8°F-2.3°C 63% Calm Calm -- 30.31 in1026.4 mb - 0.00 in0.0 mm 0.00 in0.0 mm
02:00 AM 39.2°F4.0°C 28.0°F-2.2°C 64% Calm Calm -- 30.31 in1026.4 mb - 0.00 in0.0 mm 0.00 in0.0 mm
02:10 AM 39.1°F3.9°C 27.9°F-2.3°C 64% Calm Calm -- 30.32 in1026.8 mb - 0.00 in0.0 mm 0.00 in0.0 mm
02:20 AM 38.9°F3.8°C 28.1°F-2.2°C 65% Calm Calm -- 30.32 in1026.8 mb - 0.00 in0.0 mm 0.00 in0.0 mm
02:30 AM 38.8°F3.8°C 28.0°F-2.2°C 65% Calm Calm -- 30.32 in1026.8 mb - 0.00 in0.0 mm 0.00 in0.0 mm
02:40 AM 38.7°F3.7°C 27.9°F-2.3°C 65% Calm Calm -- 30.31 in1026.4 mb - 0.00 in0.0 mm 0.00 in0.0 mm
02:50 AM 38.5°F3.6°C 27.7°F-2.4°C 65% Calm Calm -- 30.31 in1026.4 mb - 0.00 in0.0 mm 0.00 in0.0 mm
03:00 AM 38.3°F3.5°C 27.9°F-2.3°C 66% Calm Calm -- 30.31 in1026.4 mb - 0.00 in0.0 mm 0.00 in0.0 mm
03:10 AM 38.2°F3.4°C 27.8°F-2.3°C 66% Calm Calm -- 30.31 in1026.4 mb - 0.00 in0.0 mm 0.00 in0.0 mm
03:20 AM 38.1°F3.4°C 27.7°F-2.4°C 66% Calm Calm -- 30.31 in1026.4 mb - 0.00 in0.0 mm 0.00 in0.0 mm
03:30 AM 37.9°F3.3°C 27.5°F-2.5°C 66% Calm Calm -- 30.31 in1026.4 mb - 0.00 in0.0 mm 0.00 in0.0 mm
03:40 AM 37.7°F3.2°C 27.7°F-2.4°C 67% Calm Calm -- 30.31 in1026.4 mb - 0.00 in0.0 mm 0.00 in0.0 mm
03:50 AM 37.5°F3.1°C 27.5°F-2.5°C 67% Calm Calm -- 30.31 in1026.4 mb - 0.00 in0.0 mm 0.00 in0.0 mm
04:00 AM 37.3°F2.9°C 27.3°F-2.6°C 67% Calm Calm -- 30.31 in1026.4 mb - 0.00 in0.0 mm 0.00 in0.0 mm
04:10 AM 37.1°F2.8°C 27.2°F-2.7°C 67% Calm Calm -- 30.31 in1026.4 mb - 0.00 in0.0 mm 0.00 in0.0 mm
04:20 AM 37.0°F2.8°C 27.4°F-2.6°C 68% Calm Calm -- 30.32 in1026.8 mb - 0.00 in0.0 mm 0.00 in0.0 mm
04:30 AM 36.7°F2.6°C 27.2°F-2.7°C 68% Calm Calm -- 30.32 in1026.8 mb - 0.00 in0.0 mm 0.00 in0.0 mm
04:40 AM 36.8°F2.7°C 27.2°F-2.7°C 68% Calm Calm -- 30.32 in1026.8 mb - 0.00 in0.0 mm 0.00 in0.0 mm
04:50 AM 38.2°F3.4°C 27.8°F-2.3°C 66% 1.2 mph SSW1.9 kmh SSW 3.5 mph5.6 kmh 30.32 in1026.8 mb - 0.00 in0.0 mm 0.00 in0.0 mm
05:00 AM 38.9°F3.8°C 27.8°F-2.3°C 64% Calm Calm -- 30.32 in1026.8 mb - 0.00 in0.0 mm 0.00 in0.0 mm
05:10 AM 38.6°F3.7°C 27.1°F-2.7°C 63% Calm Calm -- 30.32 in1026.8 mb - 0.00 in0.0 mm 0.00 in0.0 mm
05:20 AM 38.4°F3.6°C 27.2°F-2.7°C 64% Calm Calm -- 30.32 in1026.8 mb - 0.00 in0.0 mm 0.00 in0.0 mm
05:30 AM 38.2°F3.4°C 27.1°F-2.7°C 64% Calm Calm -- 30.32 in1026.8 mb - 0.00 in0.0 mm 0.00 in0.0 mm
05:40 AM 37.9°F3.3°C 26.8°F-2.9°C 64% Calm Calm -- 30.32 in1026.8 mb - 0.00 in0.0 mm 0.00 in0.0 mm
05:50 AM 37.6°F3.1°C 26.9°F-2.8°C 65% Calm Calm -- 30.33 in1027.1 mb - 0.00 in0.0 mm 0.00 in0.0 mm
06:00 AM 37.7°F3.2°C 27.0°F-2.8°C 65% Calm Calm -- 30.33 in1027.1 mb - 0.00 in0.0 mm 0.00 in0.0 mm
06:10 AM 37.5°F3.1°C 26.8°F-2.9°C 65% Calm Calm -- 30.33 in1027.1 mb - 0.00 in0.0 mm 0.00 in0.0 mm
06:20 AM 37.4°F3.0°C 27.1°F-2.7°C 66% Calm Calm 3.5 mph5.6 kmh 30.33 in1027.1 mb - 0.00 in0.0 mm 0.00 in0.0 mm
06:30 AM 37.7°F3.2°C 27.0°F-2.8°C 65% Calm Calm -- 30.33 in1027.1 mb - 0.00 in0.0 mm 0.00 in0.0 mm
06:40 AM 37.6°F3.1°C 27.2°F-2.7°C 66% Calm Calm -- 30.33 in1027.1 mb - 0.00 in0.0 mm 0.00 in0.0 mm
06:50 AM 37.8°F3.2°C 27.5°F-2.5°C 66% Calm Calm 1.2 mph1.9 kmh 30.33 in1027.1 mb - 0.00 in0.0 mm 0.00 in0.0 mm
07:00 AM 37.9°F3.3°C 27.2°F-2.7°C 65% Calm Calm 1.2 mph1.9 kmh 30.34 in1027.4 mb - 0.00 in0.0 mm 0.00 in0.0 mm
07:10 AM 37.9°F3.3°C 27.5°F-2.5°C 66% Calm Calm -- 30.34 in1027.4 mb - 0.00 in0.0 mm 0.00 in0.0 mm
07:20 AM 38.3°F3.5°C 27.5°F-2.5°C 65% Calm Calm -- 30.34 in1027.4 mb - 0.00 in0.0 mm 0.00 in0.0 mm
07:30 AM 38.7°F3.7°C 27.9°F-2.3°C 65% Calm Calm -- 30.34 in1027.4 mb - 0.00 in0.0 mm 0.00 in0.0 mm
07:40 AM 39.7°F4.3°C 28.1°F-2.2°C 63% Calm Calm -- 30.35 in1027.8 mb - 0.00 in0.0 mm 0.00 in0.0 mm
07:50 AM 40.4°F4.7°C 28.0°F-2.2°C 61% Calm Calm -- 30.35 in1027.8 mb - 0.00 in0.0 mm 0.00 in0.0 mm
08:00 AM 40.6°F4.8°C 28.2°F-2.1°C 61% Calm Calm -- 30.35 in1027.8 mb - 0.00 in0.0 mm 0.00 in0.0 mm
08:10 AM 40.9°F4.9°C 28.5°F-1.9°C 61% Calm Calm -- 30.35 in1027.8 mb - 0.00 in0.0 mm 0.00 in0.0 mm
08:20 AM 41.2°F5.1°C 28.4°F-2.0°C 60% Calm Calm -- 30.35 in1027.8 mb - 0.00 in0.0 mm 0.00 in0.0 mm
08:30 AM 42.0°F5.6°C 28.7°F-1.8°C 59% Calm Calm 1.2 mph1.9 kmh 30.35 in1027.8 mb - 0.00 in0.0 mm 0.00 in0.0 mm
08:40 AM 42.9°F6.1°C 28.7°F-1.8°C 57% Calm Calm 3.5 mph5.6 kmh 30.35 in1027.8 mb - 0.00 in0.0 mm 0.00 in0.0 mm
08:50 AM 43.5°F6.4°C 28.8°F-1.8°C 56% Calm Calm 1.2 mph1.9 kmh 30.35 in1027.8 mb - 0.00 in0.0 mm 0.00 in0.0 mm
09:00 AM 44.3°F6.8°C 29.1°F-1.6°C 55% 1.2 mph N1.9 kmh N 3.5 mph5.6 kmh 30.35 in1027.8 mb - 0.00 in0.0 mm 0.00 in0.0 mm
09:10 AM 45.7°F7.6°C 29.5°F-1.4°C 53% Calm Calm 1.2 mph1.9 kmh 30.34 in1027.4 mb - 0.00 in0.0 mm 0.00 in0.0 mm
09:20 AM 47.0°F8.3°C 29.8°F-1.2°C 51% Calm Calm -- 30.34 in1027.4 mb - 0.00 in0.0 mm 0.00 in0.0 mm
09:30 AM 48.1°F8.9°C 30.3°F-0.9°C 50% Calm Calm -- 30.34 in1027.4 mb - 0.00 in0.0 mm 0.00 in0.0 mm
09:40 AM 49.3°F9.6°C 30.4°F-0.9°C 48% Calm Calm -- 30.34 in1027.4 mb - 0.00 in0.0 mm 0.00 in0.0 mm
09:50 AM 50.6°F10.3°C 30.5°F-0.8°C 46% Calm Calm 2.3 mph3.7 kmh 30.34 in1027.4 mb - 0.00 in0.0 mm 0.00 in0.0 mm
10:00 AM 51.5°F10.8°C 30.9°F-0.6°C 45% Calm Calm -- 30.33 in1027.1 mb - 0.00 in0.0 mm 0.00 in0.0 mm
10:10 AM 52.9°F11.6°C 32.2°F0.1°C 45% Calm Calm -- 30.33 in1027.1 mb - 0.00 in0.0 mm 0.00 in0.0 mm
10:20 AM 54.5°F12.5°C 31.8°F-0.1°C 42% Calm Calm -- 30.33 in1027.1 mb - 0.00 in0.0 mm 0.00 in0.0 mm
10:30 AM 56.5°F13.6°C 32.4°F0.2°C 40% Calm Calm -- 30.32 in1026.8 mb - 0.00 in0.0 mm 0.00 in0.0 mm
10:40 AM 57.6°F14.2°C 32.2°F0.1°C 38% Calm Calm -- 30.32 in1026.8 mb - 0.00 in0.0 mm 0.00 in0.0 mm
10:50 AM 58.7°F14.8°C 33.1°F0.6°C 38% Calm Calm -- 30.32 in1026.8 mb - 0.00 in0.0 mm 0.00 in0.0 mm
11:00 AM 59.5°F15.3°C 33.1°F0.6°C 37% Calm Calm -- 30.31 in1026.4 mb - 0.00 in0.0 mm 0.00 in0.0 mm
11:10 AM 59.9°F15.5°C 32.9°F0.5°C 36% Calm Calm -- 30.31 in1026.4 mb - 0.00 in0.0 mm 0.00 in0.0 mm
11:20 AM 61.2°F16.2°C 32.6°F0.3°C 34% Calm Calm -- 30.30 in1026.1 mb - 0.00 in0.0 mm 0.00 in0.0 mm
11:30 AM 61.1°F16.2°C 33.2°F0.7°C 35% Calm Calm -- 30.30 in1026.1 mb - 0.00 in0.0 mm 0.00 in0.0 mm
11:40 AM 62.7°F17.1°C 33.2°F0.7°C 33% Calm Calm -- 30.29 in1025.7 mb - 0.00 in0.0 mm 0.00 in0.0 mm
11:50 AM 64.8°F18.2°C 34.2°F1.2°C 32% Calm Calm -- 30.29 in1025.7 mb - 0.00 in0.0 mm 0.00 in0.0 mm
12:00 PM 64.5°F18.1°C 34.0°F1.1°C 32% Calm Calm -- 30.28 in1025.4 mb - 0.00 in0.0 mm 0.00 in0.0 mm
12:10 PM 65.8°F18.8°C 34.3°F1.3°C 31% Calm Calm -- 30.27 in1025.1 mb - 0.00 in0.0 mm 0.00 in0.0 mm
12:20 PM 67.4°F19.7°C 34.9°F1.6°C 30% Calm Calm -- 30.26 in1024.7 mb - 0.00 in0.0 mm 0.00 in0.0 mm
12:30 PM 66.7°F19.3°C 34.3°F1.3°C 30% Calm Calm -- 30.26 in1024.7 mb - 0.00 in0.0 mm 0.00 in0.0 mm
12:40 PM 65.4°F18.6°C 34.8°F1.6°C 32% Calm Calm -- 30.25 in1024.4 mb - 0.00 in0.0 mm 0.00 in0.0 mm
12:50 PM 66.7°F19.3°C 34.3°F1.3°C 30% Calm Calm -- 30.25 in1024.4 mb - 0.00 in0.0 mm 0.00 in0.0 mm
01:00 PM 68.1°F20.1°C 34.6°F1.4°C 29% Calm Calm -- 30.24 in1024.0 mb - 0.00 in0.0 mm 0.00 in0.0 mm
01:10 PM 66.7°F19.3°C 34.3°F1.3°C 30% Calm Calm -- 30.24 in1024.0 mb - 0.00 in0.0 mm 0.00 in0.0 mm
01:20 PM 67.8°F19.9°C 35.2°F1.8°C 30% Calm Calm -- 30.23 in1023.7 mb - 0.00 in0.0 mm 0.00 in0.0 mm
01:30 PM 67.4°F19.7°C 34.9°F1.6°C 30% Calm Calm 3.5 mph5.6 kmh 30.23 in1023.7 mb - 0.00 in0.0 mm 0.00 in0.0 mm
01:40 PM 67.9°F19.9°C 34.5°F1.4°C 29% 1.2 mph ESE1.9 kmh ESE 3.5 mph5.6 kmh 30.22 in1023.4 mb - 0.00 in0.0 mm 0.00 in0.0 mm
01:50 PM 69.7°F20.9°C 34.2°F1.2°C 27% 1.2 mph ESE1.9 kmh ESE 3.5 mph5.6 kmh 30.22 in1023.4 mb - 0.00 in0.0 mm 0.00 in0.0 mm
02:00 PM 69.0°F20.6°C 35.4°F1.9°C 29% Calm Calm -- 30.22 in1023.4 mb - 0.00 in0.0 mm 0.00 in0.0 mm
02:10 PM 68.2°F20.1°C 34.7°F1.5°C 29% 1.2 mph S1.9 kmh S 4.6 mph7.4 kmh 30.21 in1023.0 mb - 0.00 in0.0 mm 0.00 in0.0 mm
02:20 PM 68.5°F20.3°C 34.1°F1.2°C 28% Calm Calm -- 30.21 in1023.0 mb - 0.00 in0.0 mm 0.00 in0.0 mm
02:30 PM 69.0°F20.6°C 34.5°F1.4°C 28% Calm Calm 1.2 mph1.9 kmh 30.20 in1022.7 mb - 0.00 in0.0 mm 0.00 in0.0 mm
02:40 PM 69.7°F20.9°C 34.2°F1.2°C 27% 1.2 mph SSE1.9 kmh SSE -- 30.20 in1022.7 mb - 0.00 in0.0 mm 0.00 in0.0 mm
02:50 PM 68.8°F20.4°C 34.3°F1.3°C 28% 3.5 mph S5.6 kmh S 6.9 mph11.1 kmh 30.20 in1022.7 mb - 0.00 in0.0 mm 0.00 in0.0 mm
03:00 PM 69.0°F20.6°C 34.5°F1.4°C 28% 1.2 mph SSE1.9 kmh SSE 4.6 mph7.4 kmh 30.19 in1022.4 mb - 0.00 in0.0 mm 0.00 in0.0 mm
03:10 PM 70.1°F21.2°C 34.5°F1.4°C 27% 1.2 mph SSE1.9 kmh SSE 4.6 mph7.4 kmh 30.19 in1022.4 mb - 0.00 in0.0 mm 0.00 in0.0 mm
03:20 PM 69.1°F20.6°C 34.6°F1.4°C 28% 4.6 mph SE7.4 kmh SE 4.6 mph7.4 kmh 30.19 in1022.4 mb - 0.00 in0.0 mm 0.00 in0.0 mm
03:30 PM 68.9°F20.5°C 34.4°F1.3°C 28% 2.3 mph SE3.7 kmh SE 5.8 mph9.3 kmh 30.19 in1022.4 mb - 0.00 in0.0 mm 0.00 in0.0 mm
03:40 PM 68.8°F20.4°C 34.3°F1.3°C 28% 2.3 mph SE3.7 kmh SE 3.5 mph5.6 kmh 30.19 in1022.4 mb - 0.00 in0.0 mm 0.00 in0.0 mm
03:50 PM 68.4°F20.2°C 34.0°F1.1°C 28% 2.3 mph SSE3.7 kmh SSE 3.5 mph5.6 kmh 30.19 in1022.4 mb - 0.00 in0.0 mm 0.00 in0.0 mm
04:00 PM 67.9°F19.9°C 34.4°F1.3°C 29% 1.2 mph SE1.9 kmh SE 3.5 mph5.6 kmh 30.19 in1022.4 mb - 0.00 in0.0 mm 0.00 in0.0 mm
04:10 PM 67.4°F19.7°C 34.0°F1.1°C 29% Calm Calm 2.3 mph3.7 kmh 30.18 in1022.0 mb - 0.00 in0.0 mm 0.00 in0.0 mm
04:20 PM 66.8°F19.3°C 34.3°F1.3°C 30% 1.2 mph SE1.9 kmh SE 3.5 mph5.6 kmh 30.18 in1022.0 mb - 0.00 in0.0 mm 0.00 in0.0 mm
04:30 PM 66.4°F19.1°C 34.0°F1.1°C 30% Calm Calm 1.2 mph1.9 kmh 30.19 in1022.4 mb - 0.00 in0.0 mm 0.00 in0.0 mm
04:40 PM 65.7°F18.7°C 34.2°F1.2°C 31% Calm Calm 1.2 mph1.9 kmh 30.19 in1022.4 mb - 0.00 in0.0 mm 0.00 in0.0 mm
04:50 PM 65.0°F18.3°C 34.4°F1.3°C 32% Calm Calm -- 30.18 in1022.0 mb - 0.00 in0.0 mm 0.00 in0.0 mm
05:00 PM 64.3°F17.9°C 33.8°F1.0°C 32% Calm Calm -- 30.19 in1022.4 mb - 0.00 in0.0 mm 0.00 in0.0 mm
05:10 PM 63.8°F17.7°C 34.2°F1.2°C 33% Calm Calm -- 30.18 in1022.0 mb - 0.00 in0.0 mm 0.00 in0.0 mm
05:20 PM 63.4°F17.4°C 33.8°F1.0°C 33% Calm Calm -- 30.19 in1022.4 mb - 0.00 in0.0 mm 0.00 in0.0 mm
05:30 PM 62.9°F17.2°C 34.1°F1.2°C 34% Calm Calm -- 30.18 in1022.0 mb - 0.00 in0.0 mm 0.00 in0.0 mm
05:40 PM 62.5°F16.9°C 33.7°F0.9°C 34% Calm Calm -- 30.19 in1022.4 mb - 0.00 in0.0 mm 0.00 in0.0 mm
05:50 PM 62.0°F16.7°C 34.0°F1.1°C 35% Calm Calm -- 30.19 in1022.4 mb - 0.00 in0.0 mm 0.00 in0.0 mm
06:00 PM 61.0°F16.1°C 33.8°F1.0°C 36% Calm Calm 1.2 mph1.9 kmh 30.18 in1022.0 mb - 0.00 in0.0 mm 0.00 in0.0 mm
06:10 PM 61.2°F16.2°C 33.3°F0.7°C 35% Calm Calm -- 30.19 in1022.4 mb - 0.00 in0.0 mm 0.00 in0.0 mm
06:20 PM 60.7°F15.9°C 33.6°F0.9°C 36% Calm Calm -- 30.19 in1022.4 mb - 0.00 in0.0 mm 0.00 in0.0 mm
06:30 PM 59.9°F15.5°C 33.5°F0.8°C 37% Calm Calm -- 30.19 in1022.4 mb - 0.00 in0.0 mm 0.00 in0.0 mm
06:40 PM 59.0°F15.0°C 32.8°F0.4°C 37% Calm Calm -- 30.19 in1022.4 mb - 0.00 in0.0 mm 0.00 in0.0 mm
06:50 PM 57.8°F14.3°C 33.0°F0.6°C 39% Calm Calm -- 30.19 in1022.4 mb - 0.00 in0.0 mm 0.00 in0.0 mm
07:00 PM 56.6°F13.7°C 32.5°F0.3°C 40% Calm Calm -- 30.19 in1022.4 mb - 0.00 in0.0 mm 0.00 in0.0 mm
07:10 PM 55.1°F12.8°C 32.4°F0.2°C 42% Calm Calm 2.3 mph3.7 kmh 30.19 in1022.4 mb - 0.00 in0.0 mm 0.00 in0.0 mm
07:20 PM 54.2°F12.3°C 31.6°F-0.2°C 42% Calm Calm -- 30.19 in1022.4 mb - 0.00 in0.0 mm 0.00 in0.0 mm
07:30 PM 53.6°F12.0°C 31.0°F-0.6°C 42% Calm Calm -- 30.19 in1022.4 mb - 0.00 in0.0 mm 0.00 in0.0 mm
07:40 PM 53.1°F11.7°C 30.6°F-0.8°C 42% Calm Calm 1.2 mph1.9 kmh 30.19 in1022.4 mb - 0.00 in0.0 mm 0.00 in0.0 mm
07:50 PM 52.6°F11.4°C 30.1°F-1.1°C 42% Calm Calm 3.5 mph5.6 kmh 30.20 in1022.7 mb - 0.00 in0.0 mm 0.00 in0.0 mm
08:00 PM 52.2°F11.2°C 29.8°F-1.2°C 42% Calm Calm 1.2 mph1.9 kmh 30.20 in1022.7 mb - 0.00 in0.0 mm 0.00 in0.0 mm
08:10 PM 51.8°F11.0°C 29.4°F-1.4°C 42% Calm Calm 2.3 mph3.7 kmh 30.20 in1022.7 mb - 0.00 in0.0 mm 0.00 in0.0 mm
08:20 PM 51.3°F10.7°C 29.0°F-1.7°C 42% 1.2 mph W1.9 kmh W 3.5 mph5.6 kmh 30.20 in1022.7 mb - 0.00 in0.0 mm 0.00 in0.0 mm
08:30 PM 50.9°F10.5°C 29.2°F-1.6°C 43% Calm Calm -- 30.20 in1022.7 mb - 0.00 in0.0 mm 0.00 in0.0 mm
08:40 PM 50.6°F10.3°C 28.9°F-1.7°C 43% Calm Calm -- 30.20 in1022.7 mb - 0.00 in0.0 mm 0.00 in0.0 mm
08:50 PM 50.4°F10.2°C 28.7°F-1.8°C 43% Calm Calm -- 30.20 in1022.7 mb - 0.00 in0.0 mm 0.00 in0.0 mm
09:00 PM 50.0°F10.0°C 28.9°F-1.7°C 44% Calm Calm -- 30.20 in1022.7 mb - 0.00 in0.0 mm 0.00 in0.0 mm
09:10 PM 49.2°F9.6°C 28.7°F-1.8°C 45% Calm Calm -- 30.20 in1022.7 mb - 0.00 in0.0 mm 0.00 in0.0 mm
09:20 PM 48.9°F9.4°C 29.0°F-1.7°C 46% Calm Calm 2.3 mph3.7 kmh 30.20 in1022.7 mb - 0.00 in0.0 mm 0.00 in0.0 mm
09:30 PM 50.6°F10.3°C 29.5°F-1.4°C 44% Calm Calm -- 30.19 in1022.4 mb - 0.00 in0.0 mm 0.00 in0.0 mm
09:40 PM 50.5°F10.3°C 28.8°F-1.8°C 43% Calm Calm 1.2 mph1.9 kmh 30.20 in1022.7 mb - 0.00 in0.0 mm 0.00 in0.0 mm
09:50 PM 50.0°F10.0°C 28.9°F-1.7°C 44% Calm Calm -- 30.19 in1022.4 mb - 0.00 in0.0 mm 0.00 in0.0 mm
10:00 PM 49.8°F9.9°C 29.3°F-1.5°C 45% Calm Calm -- 30.19 in1022.4 mb - 0.00 in0.0 mm 0.00 in0.0 mm
10:10 PM 49.7°F9.8°C 29.7°F-1.3°C 46% Calm Calm -- 30.19 in1022.4 mb - 0.00 in0.0 mm 0.00 in0.0 mm
10:20 PM 49.6°F9.8°C 29.6°F-1.3°C 46% Calm Calm -- 30.19 in1022.4 mb - 0.00 in0.0 mm 0.00 in0.0 mm
10:30 PM 48.6°F9.2°C 29.2°F-1.6°C 47% Calm Calm -- 30.19 in1022.4 mb - 0.00 in0.0 mm 0.00 in0.0 mm
10:40 PM 47.4°F8.6°C 29.2°F-1.6°C 49% Calm Calm -- 30.19 in1022.4 mb - 0.00 in0.0 mm 0.00 in0.0 mm
10:50 PM 47.5°F8.6°C 29.3°F-1.5°C 49% Calm Calm -- 30.19 in1022.4 mb - 0.00 in0.0 mm 0.00 in0.0 mm
11:00 PM 47.3°F8.5°C 29.0°F-1.7°C 49% Calm Calm -- 30.19 in1022.4 mb - 0.00 in0.0 mm 0.00 in0.0 mm
11:10 PM 46.4°F8.0°C 28.8°F-1.8°C 50% Calm Calm -- 30.19 in1022.4 mb - 0.00 in0.0 mm 0.00 in0.0 mm
11:20 PM 45.8°F7.7°C 28.7°F-1.8°C 51% Calm Calm -- 30.19 in1022.4 mb - 0.00 in0.0 mm 0.00 in0.0 mm
11:30 PM 45.4°F7.4°C 28.8°F-1.8°C 52% Calm Calm -- 30.18 in1022.0 mb - 0.00 in0.0 mm 0.00 in0.0 mm
11:40 PM 45.6°F7.6°C 29.0°F-1.7°C 52% Calm Calm -- 30.18 in1022.0 mb - 0.00 in0.0 mm 0.00 in0.0 mm
11:50 PM 45.4°F7.4°C 28.8°F-1.8°C 52% Calm Calm -- 30.18 in1022.0 mb - 0.00 in0.0 mm 0.00 in0.0 mm